createdAt,value
2022-09-21T00:02:14.735Z,99631.23
2022-09-21T00:04:46.875Z,99632.22
2022-09-21T00:07:19.505Z,99631.02
2022-09-21T00:09:52.726Z,99634.10
2022-09-21T00:12:25.551Z,99636.59
2022-09-21T00:14:58.739Z,99634.06
2022-09-21T00:17:31.717Z,99632.70
2022-09-21T00:20:06.150Z,99634.06
2022-09-21T00:22:40.160Z,99628.64
2022-09-21T00:25:13.662Z,99632.70
2022-09-21T00:30:31.324Z,99633.20
2022-09-21T00:33:04.080Z,99628.64
2022-09-21T00:35:40.449Z,99624.34
2022-09-21T00:38:13.866Z,99632.15
2022-09-21T00:40:46.660Z,99627.58
2022-09-21T00:43:20.580Z,99627.43
2022-09-21T00:45:55.564Z,99628.94
2022-09-21T00:48:28.466Z,99627.20
2022-09-21T00:51:04.641Z,99618.23
2022-09-21T00:53:38.089Z,99620.27
2022-09-21T00:56:11.172Z,99621.93
2022-09-21T00:58:50.229Z,99618.38
2022-09-21T01:01:24.084Z,99616.66
2022-09-21T01:03:57.560Z,99616.16
2022-09-21T01:06:30.347Z,99622.09
2022-09-21T01:09:03.852Z,99620.39
2022-09-21T01:11:59.541Z,99619.37
2022-09-21T01:15:18.291Z,99619.37
2022-09-21T01:18:20.958Z,99610.89
2022-09-21T01:21:11.519Z,99613.59
2022-09-21T01:24:16.234Z,99616.81
2022-09-21T01:27:22.416Z,99618.16
2022-09-21T01:30:14.229Z,99617.67
2022-09-21T01:32:55.304Z,99626.98
2022-09-21T01:35:40.080Z,99627.81
2022-09-21T01:38:31.396Z,99631.55
2022-09-21T01:41:07.423Z,99627.78
2022-09-21T01:43:43.753Z,99625.93
2022-09-21T01:46:37.515Z,99624.73
2022-09-21T01:49:23.455Z,99621.86
2022-09-21T01:52:01.032Z,99624.23
2022-09-21T01:54:38.572Z,99622.35
2022-09-21T01:57:22.201Z,99617.22
2022-09-21T02:00:00.082Z,99621.14
2022-09-21T02:02:50.486Z,99620.66
2022-09-21T02:05:24.781Z,99627.59
2022-09-21T02:07:58.367Z,99623.37
2022-09-21T02:10:39.374Z,99623.37
2022-09-21T02:13:13.781Z,99622.88
2022-09-21T02:16:12.437Z,99626.80
2022-09-21T02:19:15.275Z,99629.14
2022-09-21T02:21:59.036Z,99630.16
2022-09-21T02:24:39.833Z,99628.16
2022-09-21T02:27:41.777Z,99630.16
2022-09-21T02:30:27.770Z,99640.37
2022-09-21T02:33:20.044Z,99629.52
2022-09-21T02:36:14.349Z,99636.64
2022-09-21T02:38:56.961Z,99636.14
2022-09-21T02:41:59.904Z,99634.60
2022-09-21T02:44:48.889Z,99631.73
2022-09-21T02:47:27.486Z,99636.67
2022-09-21T02:50:05.558Z,99633.25
2022-09-21T02:52:38.503Z,99637.69
2022-09-21T02:55:12.126Z,99635.31
2022-09-21T02:57:45.548Z,99642.97
2022-09-21T03:00:18.654Z,99649.60
2022-09-21T03:02:52.179Z,99648.59
2022-09-21T03:05:26.396Z,99644.52
2022-09-21T03:07:59.330Z,99648.44
2022-09-21T03:10:32.742Z,99653.00
2022-09-21T03:13:05.864Z,99655.38
2022-09-21T03:15:40.220Z,99660.47
2022-09-21T03:18:13.086Z,99655.68
2022-09-21T03:20:47.003Z,99672.31
2022-09-21T03:23:21.585Z,99665.52
2022-09-21T03:25:55.068Z,99667.41
2022-09-21T03:28:28.394Z,99664.84
2022-09-21T03:31:01.420Z,99665.48
2022-09-21T03:33:35.487Z,99661.59
2022-09-21T03:36:11.884Z,99663.33
2022-09-21T03:38:45.643Z,99655.87
2022-09-21T03:41:19.015Z,99657.37
2022-09-21T03:43:52.352Z,99659.59
2022-09-21T03:46:25.353Z,99659.11
2022-09-21T03:48:58.805Z,99657.75
2022-09-21T03:51:31.808Z,99660.62
2022-09-21T03:54:05.922Z,99656.02
2022-09-21T03:56:40.145Z,99656.39
2022-09-21T03:59:14.271Z,99659.45
2022-09-21T04:01:48.266Z,99660.80
2022-09-21T04:04:21.942Z,99663.03
2022-09-21T04:06:54.718Z,99666.08
2022-09-21T04:09:27.471Z,99677.51
2022-09-21T04:12:00.735Z,99669.70
2022-09-21T04:14:34.353Z,99675.81
2022-09-21T04:17:08.231Z,99681.96
2022-09-21T04:19:40.926Z,99682.60
2022-09-21T04:22:15.087Z,99681.62
2022-09-21T04:24:47.792Z,99690.97
2022-09-21T04:27:21.036Z,99684.34
2022-09-21T04:29:53.683Z,99687.05
2022-09-21T04:32:26.518Z,99685.69
2022-09-21T04:34:59.680Z,99685.54
2022-09-21T04:37:32.610Z,99685.02
2022-09-21T04:40:06.528Z,99689.46
2022-09-21T04:42:40.616Z,99689.46
2022-09-21T04:45:14.346Z,99688.94
2022-09-21T04:47:47.857Z,99688.75
2022-09-21T04:50:21.016Z,99689.39
2022-09-21T04:52:53.894Z,99690.41
2022-09-21T04:55:26.748Z,99694.14
2022-09-21T04:58:00.543Z,99697.34
2022-09-21T05:00:33.843Z,99699.23
2022-09-21T05:03:06.691Z,99704.13
2022-09-21T05:05:39.791Z,99701.76
2022-09-21T05:08:13.011Z,99701.61
2022-09-21T05:10:46.433Z,99704.02
2022-09-21T05:13:20.424Z,99704.02
2022-09-21T05:15:53.539Z,99701.00
2022-09-21T05:18:27.728Z,99694.22
2022-09-21T05:21:02.455Z,99695.46
2022-09-21T05:23:35.555Z,99702.58
2022-09-21T05:26:08.703Z,99700.61
2022-09-21T05:28:42.598Z,99701.89
2022-09-21T05:31:29.363Z,99697.57
2022-09-21T05:34:40.624Z,99701.06
2022-09-21T05:37:30.170Z,99701.98
2022-09-21T05:40:04.992Z,99699.52
2022-09-21T05:42:38.349Z,99697.90
2022-09-21T05:45:17.119Z,99696.09
2022-09-21T05:48:19.832Z,99692.62
2022-09-21T05:51:30.037Z,99697.95
2022-09-21T05:54:22.976Z,99705.87
2022-09-21T05:57:18.419Z,99705.27
2022-09-21T05:59:53.554Z,99708.03
2022-09-21T06:02:39.854Z,99708.03
2022-09-21T06:05:15.099Z,99708.72
2022-09-21T06:07:48.350Z,99707.67
2022-09-21T06:10:22.159Z,99713.09
2022-09-21T06:12:56.877Z,99717.83
2022-09-21T06:15:30.019Z,99718.47
2022-09-21T06:18:02.769Z,99712.14
2022-09-21T06:20:35.726Z,99713.32
2022-09-21T06:23:13.169Z,99718.05
2022-09-21T06:25:45.945Z,99721.30
2022-09-21T06:28:18.803Z,99716.02
2022-09-21T06:30:55.916Z,99726.91
2022-09-21T06:33:29.683Z,99723.47
2022-09-21T06:36:03.116Z,99730.92
2022-09-21T06:38:37.345Z,99728.70
2022-09-21T06:41:11.066Z,99733.94
2022-09-21T06:43:44.512Z,99732.89
2022-09-21T06:46:17.328Z,99739.69
2022-09-21T06:48:50.778Z,99736.47
2022-09-21T06:51:25.298Z,99738.70
2022-09-21T06:53:59.957Z,99736.34
2022-09-21T06:56:33.525Z,99741.49
2022-09-21T06:59:06.735Z,99744.59
2022-09-21T07:01:40.402Z,99748.35
2022-09-21T07:04:13.551Z,99747.33
2022-09-21T07:06:47.626Z,99748.38
2022-09-21T07:11:55.911Z,99746.41
2022-09-21T07:14:30.429Z,99748.13
2022-09-21T07:17:03.373Z,99743.19
2022-09-21T07:19:36.560Z,99758.78
2022-09-21T07:22:10.090Z,99753.42
2022-09-21T07:24:43.287Z,99752.03
2022-09-21T07:27:15.865Z,99758.50
2022-09-21T07:29:48.613Z,99761.24
2022-09-21T07:32:21.240Z,99758.57
2022-09-21T07:34:55.565Z,99757.29
2022-09-21T07:37:29.900Z,99756.29
2022-09-21T07:40:04.225Z,99760.37
2022-09-21T07:42:37.528Z,99759.20
2022-09-21T07:45:11.404Z,99770.89
2022-09-21T07:47:46.649Z,99768.31
2022-09-21T07:50:19.287Z,99763.00
2022-09-21T07:52:51.874Z,99768.06
2022-09-21T07:55:25.475Z,99775.40
2022-09-21T07:58:15.755Z,99773.72
2022-09-21T08:00:49.631Z,99783.92
2022-09-21T08:03:22.213Z,99782.23
2022-09-21T08:05:56.261Z,99778.14
2022-09-21T08:08:28.750Z,99783.74
2022-09-21T08:11:06.384Z,99780.00
2022-09-21T08:13:40.529Z,99781.05
2022-09-21T08:16:13.559Z,99784.97
2022-09-21T08:18:46.566Z,99783.30
2022-09-21T08:21:20.827Z,99791.33
2022-09-21T08:23:53.634Z,99788.45
2022-09-21T08:26:26.481Z,99786.28
2022-09-21T08:28:59.996Z,99785.75
2022-09-21T08:31:32.830Z,99789.34
2022-09-21T08:34:05.883Z,99789.34
2022-09-21T08:36:39.042Z,99787.98
2022-09-21T08:39:12.825Z,99782.03
2022-09-21T08:41:55.840Z,99784.92
2022-09-21T08:44:52.989Z,99784.55
2022-09-21T08:47:39.768Z,99785.05
2022-09-21T08:50:41.091Z,99783.63
2022-09-21T08:53:32.538Z,99787.20
2022-09-21T08:56:05.277Z,99783.42
2022-09-21T08:58:40.868Z,99789.34
2022-09-21T09:01:58.861Z,99786.59
2022-09-21T09:04:57.188Z,99790.15
2022-09-21T09:08:04.899Z,99792.55
2022-09-21T09:10:44.595Z,99802.81
2022-09-21T09:13:42.874Z,99797.77
2022-09-21T09:16:27.965Z,99805.11
2022-09-21T09:19:11.533Z,99805.17
2022-09-21T09:21:44.262Z,99805.84
2022-09-21T09:24:38.711Z,99802.31
2022-09-21T09:27:16.233Z,99807.78
2022-09-21T09:29:53.481Z,99804.46
2022-09-21T09:32:33.488Z,99808.23
2022-09-21T09:35:49.820Z,99807.38
2022-09-21T09:38:42.246Z,99810.66
2022-09-21T09:41:54.954Z,99805.06
2022-09-21T09:45:13.773Z,99805.97
2022-09-21T09:48:29.012Z,99815.59
2022-09-21T09:51:01.470Z,99815.03
2022-09-21T09:53:34.192Z,99818.64
2022-09-21T09:56:07.125Z,99820.50
2022-09-21T09:58:59.879Z,99821.53
2022-09-21T10:01:47.478Z,99817.78
2022-09-21T10:04:20.253Z,99823.06
2022-09-21T10:06:52.684Z,99822.03
2022-09-21T10:09:34.535Z,99820.88
2022-09-21T10:12:28.153Z,99817.50
2022-09-21T10:15:01.645Z,99821.94
2022-09-21T10:17:34.790Z,99813.80
2022-09-21T10:20:10.841Z,99825.06
2022-09-21T10:22:47.215Z,99820.31
2022-09-21T10:25:20.717Z,99818.63
2022-09-21T10:27:55.160Z,99821.26
2022-09-21T10:30:38.854Z,99817.17
2022-09-21T10:33:23.061Z,99817.20
2022-09-21T10:35:57.138Z,99813.64
2022-09-21T10:38:30.719Z,99818.39
2022-09-21T10:41:03.262Z,99827.61
2022-09-21T10:43:43.173Z,99829.31
2022-09-21T10:46:13.916Z,99836.80
2022-09-21T10:48:47.710Z,99834.07
2022-09-21T10:51:27.866Z,99836.80
2022-09-21T10:54:00.344Z,99840.52
2022-09-21T10:56:33.345Z,99841.69
2022-09-21T10:59:16.864Z,99836.03
2022-09-21T11:01:52.119Z,99838.75
2022-09-21T11:04:39.441Z,99841.80
2022-09-21T11:07:40.367Z,99836.18
2022-09-21T11:10:52.301Z,99834.66
2022-09-21T11:13:54.490Z,99831.59
2022-09-21T11:16:35.393Z,99832.46
2022-09-21T11:19:46.680Z,99827.52
2022-09-21T11:22:57.673Z,99825.19
2022-09-21T11:25:37.828Z,99813.60
2022-09-21T11:28:22.311Z,99813.80
2022-09-21T11:31:08.744Z,99816.71
2022-09-21T11:33:55.896Z,99819.61
2022-09-21T11:36:48.456Z,99823.19
2022-09-21T11:39:54.643Z,99823.33
2022-09-21T11:42:51.538Z,99829.61
2022-09-21T11:45:50.373Z,99833.04
2022-09-21T11:48:49.481Z,99829.48
2022-09-21T11:51:41.701Z,99823.03
2022-09-21T11:54:46.675Z,99824.89
2022-09-21T11:57:38.505Z,99825.22
2022-09-21T12:00:23.419Z,99828.63
2022-09-21T12:03:39.403Z,99818.73
2022-09-21T12:06:26.848Z,99822.14
2022-09-21T12:09:29.924Z,99820.77
2022-09-21T12:12:16.186Z,99836.84
2022-09-21T12:15:16.151Z,99831.38
2022-09-21T12:18:06.655Z,99843.62
2022-09-21T12:20:59.645Z,99843.98
2022-09-21T12:23:51.487Z,99842.03
2022-09-21T12:26:31.224Z,99840.61
2022-09-21T12:29:07.990Z,99838.50
2022-09-21T12:32:22.402Z,99841.86
2022-09-21T12:35:02.143Z,99846.28
2022-09-21T12:37:53.182Z,99839.30
2022-09-21T12:41:06.772Z,99842.53
2022-09-21T12:44:06.409Z,99846.00
2022-09-21T12:46:51.558Z,99844.53
2022-09-21T12:49:28.878Z,99848.14
2022-09-21T12:52:05.138Z,99848.21
2022-09-21T12:54:58.577Z,99845.66
2022-09-21T12:58:04.363Z,99845.00
2022-09-21T13:00:25.573Z,99844.14
2022-09-21T13:03:08.388Z,99844.14
2022-09-21T13:06:09.260Z,99842.79
2022-09-21T13:08:47.339Z,99834.81
2022-09-21T13:11:21.878Z,99842.83
2022-09-21T13:14:00.543Z,99844.03
2022-09-21T13:16:40.085Z,99840.97
2022-09-21T13:19:23.949Z,99837.72
2022-09-21T13:22:21.721Z,99841.31
2022-09-21T13:25:27.429Z,99840.28
2022-09-21T13:28:14.150Z,99838.08
2022-09-21T13:31:37.016Z,99842.30
2022-09-21T13:34:23.406Z,99842.63
2022-09-21T13:37:38.191Z,99842.13
2022-09-21T13:40:22.140Z,99839.19
2022-09-21T13:42:54.729Z,99841.41
2022-09-21T13:45:33.461Z,99841.07
2022-09-21T13:48:16.839Z,99836.28
2022-09-21T13:50:49.482Z,99839.70
2022-09-21T13:53:25.883Z,99831.88
2022-09-21T13:56:21.116Z,99840.59
2022-09-21T13:58:57.447Z,99843.83
2022-09-21T14:01:52.757Z,99840.10
2022-09-21T14:04:33.354Z,99838.53
2022-09-21T14:07:08.604Z,99837.87
2022-09-21T14:09:43.309Z,99840.43
2022-09-21T14:12:23.273Z,99840.27
2022-09-21T14:15:24.746Z,99845.89
2022-09-21T14:18:17.449Z,99846.05
2022-09-21T14:21:11.685Z,99841.95
2022-09-21T14:24:05.270Z,99847.25
2022-09-21T14:26:44.609Z,99850.30
2022-09-21T14:29:39.796Z,99850.63
2022-09-21T14:32:24.035Z,99855.38
2022-09-21T14:35:01.650Z,99849.58
2022-09-21T14:37:43.736Z,99851.59
2022-09-21T14:40:31.504Z,99847.13
2022-09-21T14:43:04.181Z,99851.58
2022-09-21T14:46:13.250Z,99859.39
2022-09-21T14:49:16.552Z,99863.20
2022-09-21T14:52:27.853Z,99860.16
2022-09-21T14:55:21.884Z,99863.86
2022-09-21T14:58:44.778Z,99862.81
2022-09-21T15:01:38.419Z,99865.48
2022-09-21T15:04:34.101Z,99865.47
2022-09-21T15:07:56.727Z,99869.37
2022-09-21T15:10:58.324Z,99863.69
2022-09-21T15:14:06.204Z,99873.03
2022-09-21T15:16:46.007Z,99875.37
2022-09-21T15:19:22.855Z,99884.39
2022-09-21T15:22:15.815Z,99879.05
2022-09-21T15:25:00.005Z,99884.97
2022-09-21T15:27:34.506Z,99887.83
2022-09-21T15:30:08.340Z,99891.02
2022-09-21T15:32:50.374Z,99890.16
2022-09-21T15:35:27.911Z,99892.52
2022-09-21T15:38:02.661Z,99900.01
2022-09-21T15:40:41.350Z,99903.23
2022-09-21T15:43:20.989Z,99900.81
2022-09-21T15:46:02.639Z,99909.30
2022-09-21T15:49:01.060Z,99901.10
2022-09-21T15:51:37.269Z,99907.53
2022-09-21T15:54:26.831Z,99916.69
2022-09-21T15:57:14.482Z,99918.73
2022-09-21T15:59:47.681Z,99919.05
2022-09-21T16:02:24.486Z,99926.91
2022-09-21T16:04:57.165Z,99931.48
2022-09-21T16:07:35.940Z,99934.05
2022-09-21T16:10:40.508Z,99931.33
2022-09-21T16:13:37.450Z,99930.30
2022-09-21T16:16:15.043Z,99934.39
2022-09-21T16:18:52.286Z,99929.47
2022-09-21T16:21:35.039Z,99929.47
2022-09-21T16:24:23.134Z,99931.33
2022-09-21T16:27:03.499Z,99927.89
2022-09-21T16:29:45.703Z,99932.66
2022-09-21T16:32:32.236Z,99933.30
2022-09-21T16:35:33.355Z,99926.31
2022-09-21T16:38:09.911Z,99935.50
2022-09-21T16:40:42.029Z,99933.98
2022-09-21T16:43:16.667Z,99933.80
2022-09-21T16:45:49.529Z,99939.09
2022-09-21T16:48:22.078Z,99940.45
2022-09-21T16:50:55.874Z,99941.47
2022-09-21T16:53:30.740Z,99941.63
2022-09-21T16:56:04.664Z,99948.59
2022-09-21T16:58:37.628Z,99951.27
2022-09-21T17:01:13.315Z,99950.03
2022-09-21T17:03:47.619Z,99953.70
2022-09-21T17:06:22.694Z,99954.31
2022-09-21T17:08:55.636Z,99956.81
2022-09-21T17:11:30.067Z,99960.30
2022-09-21T17:14:06.531Z,99966.87
2022-09-21T17:16:39.274Z,99963.39
2022-09-21T17:19:13.080Z,99974.72
2022-09-21T17:21:45.990Z,99969.02
2022-09-21T17:24:45.931Z,99973.72
2022-09-21T17:26:54.342Z,99971.94
2022-09-21T17:29:30.807Z,99974.27
2022-09-21T17:32:06.221Z,99965.70
2022-09-21T17:34:39.008Z,99969.05
2022-09-21T17:37:12.043Z,99974.15
2022-09-21T17:39:47.677Z,99970.70
2022-09-21T17:42:23.348Z,99970.89
2022-09-21T17:45:18.995Z,99975.76
2022-09-21T17:47:52.327Z,99968.24
2022-09-21T17:50:29.098Z,99979.36
2022-09-21T17:53:23.529Z,99973.53
2022-09-21T17:55:59.617Z,99978.68
2022-09-21T17:59:06.076Z,99979.79
2022-09-21T18:01:40.496Z,99974.27
2022-09-21T18:04:13.325Z,99978.92
2022-09-21T18:06:48.298Z,99972.05
2022-09-21T18:09:22.649Z,99972.34
2022-09-21T18:12:36.591Z,99976.02
2022-09-21T18:15:31.164Z,99970.87
2022-09-21T18:18:53.873Z,99972.52
2022-09-21T18:21:29.237Z,99966.68
2022-09-21T18:24:32.556Z,99969.45
2022-09-21T18:27:08.097Z,99972.11
2022-09-21T18:29:42.774Z,99969.82
2022-09-21T18:32:50.764Z,99978.25
2022-09-21T18:35:58.289Z,99973.62
2022-09-21T18:38:42.769Z,99983.91
2022-09-21T18:41:57.185Z,99981.71
2022-09-21T18:44:46.850Z,99984.05
2022-09-21T18:47:33.397Z,99982.69
2022-09-21T18:50:35.298Z,99973.47
2022-09-21T18:53:25.139Z,99977.34
2022-09-21T18:55:58.351Z,99980.20
2022-09-21T18:58:33.075Z,99983.05
2022-09-21T19:01:07.247Z,99980.34
2022-09-21T19:03:41.004Z,99981.34
2022-09-21T19:06:43.379Z,99989.34
2022-09-21T19:09:46.421Z,99990.56
2022-09-21T19:12:58.005Z,99991.70
2022-09-21T19:15:59.907Z,99992.39
2022-09-21T19:18:37.026Z,99991.63
2022-09-21T19:21:34.754Z,99987.41
2022-09-21T19:24:17.995Z,99985.03
2022-09-21T19:27:29.132Z,99990.84
2022-09-21T19:30:16.615Z,99993.18
2022-09-21T19:32:54.409Z,99992.63
2022-09-21T19:35:30.315Z,99992.19
2022-09-21T19:38:04.271Z,99986.84
2022-09-21T19:40:41.643Z,99990.70
2022-09-21T19:43:30.816Z,99990.12
2022-09-21T19:46:26.223Z,99984.28
2022-09-21T19:49:09.651Z,99986.05
2022-09-21T19:51:57.019Z,99985.13
2022-09-21T19:54:48.337Z,99983.03
2022-09-21T19:57:42.092Z,99989.33
2022-09-21T20:00:17.430Z,99989.82
2022-09-21T20:03:09.254Z,99979.70
2022-09-21T20:06:09.128Z,99980.05
2022-09-21T20:09:00.344Z,99981.61
2022-09-21T20:11:47.295Z,99974.78
2022-09-21T20:14:41.093Z,99972.77
2022-09-21T20:17:22.385Z,99975.92
2022-09-21T20:20:12.055Z,99975.26
2022-09-21T20:22:45.219Z,99971.56
2022-09-21T20:25:40.838Z,99977.05
2022-09-21T20:28:14.202Z,99970.62
2022-09-21T20:30:47.316Z,99971.20
2022-09-21T20:33:22.208Z,99976.11
2022-09-21T20:35:56.038Z,99971.05
2022-09-21T20:38:28.383Z,99969.55
2022-09-21T20:41:00.782Z,99970.77
2022-09-21T20:43:35.439Z,99968.05
2022-09-21T20:46:10.276Z,99967.39
2022-09-21T20:48:43.720Z,99969.13
2022-09-21T20:51:16.556Z,99972.33
2022-09-21T20:53:49.959Z,99969.77
2022-09-21T20:56:23.964Z,99972.96
2022-09-21T20:58:56.908Z,99983.97
2022-09-21T21:01:29.470Z,99978.68
2022-09-21T21:04:03.941Z,99976.63
2022-09-21T21:06:37.920Z,99977.64
2022-09-21T21:09:11.560Z,99965.57
2022-09-21T21:11:44.670Z,99973.85
2022-09-21T21:14:17.284Z,99978.76
2022-09-21T21:16:50.369Z,99974.20
2022-09-21T21:19:23.374Z,99970.48
2022-09-21T21:21:56.064Z,99971.97
2022-09-21T21:24:41.218Z,99967.70
2022-09-21T21:27:18.619Z,99970.35
2022-09-21T21:29:55.186Z,99973.00
2022-09-21T21:32:28.177Z,99972.27
2022-09-21T21:35:00.565Z,99970.19
2022-09-21T21:37:33.619Z,99964.21
2022-09-21T21:40:08.090Z,99969.92
2022-09-21T21:42:40.911Z,99970.20
2022-09-21T21:45:13.649Z,99965.20
2022-09-21T21:47:46.803Z,99968.05
2022-09-21T21:50:19.284Z,99972.47
2022-09-21T21:52:51.620Z,99969.27
2022-09-21T21:55:24.809Z,99969.41
2022-09-21T21:57:57.506Z,99970.77
2022-09-21T22:00:30.250Z,99965.34
2022-09-21T22:03:04.264Z,99961.61
2022-09-21T22:05:36.635Z,99961.61
2022-09-21T22:08:09.172Z,99965.69
2022-09-21T22:10:45.784Z,99975.56
2022-09-21T22:13:18.195Z,99973.19
2022-09-21T22:15:51.592Z,99973.55
2022-09-21T22:18:24.645Z,99967.42
2022-09-21T22:21:09.203Z,99962.97
2022-09-21T22:23:41.914Z,99963.98
2022-09-21T22:26:16.563Z,99958.84
2022-09-21T22:28:58.467Z,99955.92
2022-09-21T22:31:36.447Z,99961.34
2022-09-21T22:34:09.398Z,99957.34
2022-09-21T22:36:44.025Z,99963.05
2022-09-21T22:39:16.918Z,99955.89
2022-09-21T22:41:49.417Z,99954.33
2022-09-21T22:44:22.147Z,99957.11
2022-09-21T22:46:54.613Z,99956.66
2022-09-21T22:49:27.139Z,99954.53
2022-09-21T22:52:00.415Z,99957.28
2022-09-21T22:54:33.130Z,99960.92
2022-09-21T22:57:06.537Z,99962.06
2022-09-21T22:59:38.968Z,99960.98
2022-09-21T23:02:11.770Z,99959.91
2022-09-21T23:04:46.130Z,99959.45
2022-09-21T23:07:19.011Z,99958.02
2022-09-21T23:09:51.644Z,99965.06
2022-09-21T23:12:25.602Z,99961.93
2022-09-21T23:14:59.133Z,99956.78
2022-09-21T23:17:32.118Z,99964.28
2022-09-21T23:20:04.979Z,99967.12
2022-09-21T23:22:37.861Z,99968.40
2022-09-21T23:25:10.698Z,99956.83
2022-09-21T23:27:43.599Z,99960.81
2022-09-21T23:30:17.685Z,99955.45
2022-09-21T23:33:11.364Z,99967.69
2022-09-21T23:35:43.991Z,99960.80
2022-09-21T23:38:16.848Z,99960.10
2022-09-21T23:40:49.961Z,99951.89
2022-09-21T23:43:23.832Z,99950.29
2022-09-21T23:45:56.516Z,99958.06
2022-09-21T23:48:29.025Z,99952.43
2022-09-21T23:51:02.248Z,99944.92
2022-09-21T23:53:36.880Z,99948.98
2022-09-21T23:56:10.472Z,99951.83
2022-09-21T23:58:43.117Z,99956.77
